• Join FlightAware (Why Join?)
  • Login
  • US Flag 
Gobble Gobble! 
12:51AM EST


 

Airport Tracker/Info


-or-


 

Live Flight TrackerFlight Track Log ✈ N960DL ✈ 09-Jun-2013 ✈ KSDF - KATL

Flight Track Log - Related Links

Times and Time Zones

All times are in EDT time to prevent confusion due to time zone crossing. See the N960DL flight status page for this flight to view local times or setup timezone preferences in your user account.

Time Position Orientation Groundspeed Altitude Reporting Facility
EDT Latitude Longitude Course Direction KTS MPH feet Rate Location/Type
06:19AM 38.1167 -85.7333 189° South 199 229 2,500  Level Louisville TRACON
06:20AM 38.0733 -85.7886 225° Southwest 253 291 5,100 2,700 Climbing Indianapolis Center
06:21AM 38.0533 -85.9567 234° Southwest  Level FlightAware Approximate
06:21AM 38.0769 -85.8806 273° West 261 300 8,500  Level Indianapolis Center
06:22AM 37.9905 -86.0659 233° Southwest  Level FlightAware Approximate
06:22AM 38.0578 -85.9725 255° West 283 326 10,800  Level Indianapolis Center
06:23AM 37.9259 -86.1735 233° Southwest  Level FlightAware Approximate
06:23AM 38.0000 -86.0586 230° Southwest 314 361 12,300  Level Indianapolis Center
06:24AM 37.8489 -86.2402 189° South  Level FlightAware Approximate
06:24AM 37.9389 -86.1650 234° Southwest 362 417 14,400  Level Indianapolis Center
06:25AM 37.8550 -86.2533 220° Southwest 396 456 16,900 2,280 Climbing Indianapolis Center
06:26AM 37.7303 -86.2781 189° South 406 467 19,000 1,980 Climbing Indianapolis Center
06:27AM 37.6122 -86.3050 190° South 422 486 21,000 1,920 Climbing Indianapolis Center
06:28AM 37.4922 -86.3311 190° South 433 498 22,900 1,860 Climbing Indianapolis Center
06:29AM 37.3706 -86.3575 190° South 437 503 24,800 1,860 Climbing Indianapolis Center
06:30AM 37.2478 -86.3833 190° South 441 507 26,700 1,680 Climbing Indianapolis Center
06:31AM 37.1258 -86.4078 189° South 439 505 28,200 1,620 Climbing Indianapolis Center
06:32AM 37.0050 -86.4292 188° South 448 516 30,000 1,440 Climbing Memphis Center
06:33AM 36.8844 -86.4403 184° South 442 509 31,100 1,020 Climbing Memphis Center
06:34AM 36.7739 -86.4353 178° South 442 509 32,100 900 Climbing Memphis Center
06:35AM 36.6528 -86.4283 177° South 442 509 33,000 420 Climbing Memphis Center
06:36AM 36.5297 -86.4214 177° South 442 509 33,000  Level Memphis Center
06:37AM 36.4064 -86.4144 177° South 442 509 33,000  Level Memphis Center
06:38AM 36.2708 -86.4056 177° South 442 509 33,000  Level Memphis Center
06:39AM 36.1475 -86.3961 176° South 442 509 33,000  Level Memphis Center
06:40AM 36.0264 -86.3892 177° South 442 509 33,000  Level Memphis Center
06:41AM 35.9050 -86.3772 175° South 442 509 33,000  Level Memphis Center
06:43AM 35.7053 -86.3353 170° South 437 503 33,000  Level Atlanta Center
06:44AM 35.6025 -86.2481 145° Southeast 432 497 33,000  Level Atlanta Center
06:45AM 35.5017 -86.1639 146° Southeast 443 510 33,000  Level Atlanta Center
06:46AM 35.3967 -86.0794 147° Southeast 448 516 33,000  Level Atlanta Center
06:47AM 35.2836 -85.9853 146° Southeast 448 516 33,000  Level Atlanta Center
06:48AM 35.1783 -85.9014 147° Southeast 448 516 33,000  Level Atlanta Center
06:49AM 35.0897 -85.8283 146° Southeast 443 510 33,000  Level Atlanta Center
06:50AM 34.9908 -85.7475 146° Southeast 443 510 33,000  Level Atlanta Center
06:51AM 34.8856 -85.6669 148° Southeast 443 510 33,000 -900 Level Atlanta Center
06:52AM 34.7864 -85.5842 146° Southeast 443 510 31,200 -3,000 Descending Atlanta Center
06:53AM 34.6831 -85.5014 147° Southeast 443 510 27,100 -3,240 Descending Atlanta Center
06:54AM 34.5756 -85.4161 147° Southeast 449 517 24,800 -2,340 Descending Atlanta Center
06:55AM 34.4783 -85.3364 146° Southeast 443 510 22,500 -2,460 Descending Atlanta Center
06:56AM 34.3769 -85.2544 146° Southeast 419 482 19,900 -2,280 Descending Atlanta Center
06:57AM 34.2961 -85.1903 147° Southeast 395 455 18,000 -2,160 Descending Atlanta Center
06:58AM 34.2069 -85.1189 146° Southeast 383 441 15,600 -2,040 Descending Atlanta Center
06:59AM 34.1219 -85.0525 147° Southeast 377 434 14,000 -1,200 Descending Atlanta Center
07:00AM 34.0433 -84.9714 139° Southeast 371 427 13,200 -1,020 Descending Atlanta Center
07:01AM 33.9731 -84.8781 132° Southeast 371 427 12,000 -600 Descending Atlanta Center
07:02AM 33.9006 -84.7897 135° Southeast 371 427 12,000  Level Atlanta Center
07:02AM 33.8500 -84.7333 137° Southeast 369 425 12,000  Level Atlanta TRACON
07:03AM 33.7833 -84.6167 124° Southeast 360 414 12,000 -60 Level Atlanta TRACON
07:04AM 33.7333 -84.5333 126° Southeast 296 341 11,900 -840 Descending Atlanta TRACON
07:05AM 33.7333 -84.4667 90° East 273 314 10,500 -1,800 Descending Atlanta TRACON
07:06AM 33.7333 -84.3667 90° East 254 292 8,300 -2,100 Descending Atlanta TRACON
07:07AM 33.7333 -84.3000 90° East 236 272 6,100 -2,220 Descending Atlanta TRACON